Time;durP1;ratioP1;P1;durP2;ratioP2;P2;SDS_P1;SDS_P2;PMS_P1;PMS_P2;Temp;Humidity;BMP_temperature;BMP_pressure;BME280_temperature;BME280_humidity;BME280_pressure;Samples;Min_cycle;Max_cycle;Signal;HPM_P1;HPM_P2
2021/11/17 02:26:28;;;;;;;;;;;;;;;12.10;100.00;99268.13;5068956;28;19991;-81
2021/11/17 02:29:23;;;;;;;;;;;;;;;11.23;100.00;99280.81;5038063;28;19925;-80
2021/11/17 02:32:22;;;;;;;;;;;;;;;10.98;100.00;99280.38;5038306;28;19925;-80
2021/11/17 02:34:53;;;;;;;;;;;;;;;11.05;100.00;99264.28;4997370;28;20361;-80
2021/11/17 02:37:35;;;;;;;;;;;;;;;11.38;100.00;99282.16;5013964;28;20004;-81
2021/11/17 02:40:15;;;;;;;;;;;;;;;10.91;100.00;99270.88;4997341;28;20462;-80
2021/11/17 02:43:01;;;;;;;;;;;;;;;11.29;100.00;99279.09;4965688;28;20320;-80
2021/11/17 02:45:45;;;;;;;;;;;;;;;11.70;100.00;99280.47;4997196;28;20012;-81
2021/11/17 02:48:25;;;;;;;;;;;;;;;11.83;100.00;99275.06;4996801;28;19929;-81
2021/11/17 02:51:06;;;;;;;;;;;;;;;11.75;100.00;99285.59;4997717;28;20084;-81
2021/11/17 02:54:08;;;;;;;;;;;;;;;11.64;100.00;99270.97;4997436;28;19948;-81
2021/11/17 02:56:38;;;;;;;;;;;;;;;11.82;100.00;99268.66;4954881;29;19966;-81
2021/11/17 02:59:05;;;;;;;;;;;;;;;11.90;100.00;99258.13;4955080;29;20446;-81
2021/11/17 03:01:32;;;;;;;;;;;;;;;11.70;100.00;99260.88;4938912;29;19942;-81
2021/11/17 03:04:11;;;;;;;;;;;;;;;11.69;100.00;99258.50;4954940;29;19931;-81
2021/11/17 03:06:47;;;;;;;;;;;;;;;10.98;100.00;99272.78;4955246;29;19933;-81
2021/11/17 03:09:17;;;;;;;;;;;;;;;10.76;100.00;99285.47;4922779;29;20071;-80
2021/11/17 03:11:48;;;;;;;;;;;;;;;11.12;100.00;99296.97;4993586;28;20373;-80
2021/11/17 03:14:18;;;;;;;;;;;;;;;10.14;100.00;99307.34;4993786;28;19925;-80
2021/11/17 03:16:48;;;;;;;;;;;;;;;9.91;100.00;99299.59;4993653;28;20576;-80
2021/11/17 03:19:24;;;;;;;;;;;;;;;10.00;100.00;99287.91;4977023;28;20020;-80
2021/11/17 03:21:54;;;;;;;;;;;;;;;10.37;100.00;99301.94;4977185;28;19926;-80
2021/11/17 03:24:39;;;;;;;;;;;;;;;10.38;100.00;99286.75;4993448;28;20495;-80
2021/11/17 03:27:18;;;;;;;;;;;;;;;10.23;100.00;99293.69;4977254;28;20020;-80
2021/11/17 03:29:45;;;;;;;;;;;;;;;10.12;100.00;99301.38;5001886;28;19932;-80
2021/11/17 03:32:19;;;;;;;;;;;;;;;10.38;100.00;99300.72;5054639;28;20525;-80
2021/11/17 03:34:56;;;;;;;;;;;;;;;9.67;100.00;99291.44;5054787;28;20024;-80
2021/11/17 03:37:23;;;;;;;;;;;;;;;10.28;100.00;99282.88;5036871;28;20018;-80
2021/11/17 03:39:51;;;;;;;;;;;;;;;10.16;100.00;99285.41;5053064;28;19924;-80
2021/11/17 03:42:22;;;;;;;;;;;;;;;10.17;100.00;99286.97;5069624;28;20559;-80
2021/11/17 03:45:00;;;;;;;;;;;;;;;10.51;100.00;99310.16;5037112;28;20453;-81
2021/11/17 03:47:46;;;;;;;;;;;;;;;10.05;100.00;99301.44;5020054;28;19925;-80
2021/11/17 03:50:23;;;;;;;;;;;;;;;10.56;100.00;99298.50;5036490;28;19925;-80
2021/11/17 03:52:56;;;;;;;;;;;;;;;10.47;100.00;99301.00;5069703;28;20355;-80
2021/11/17 03:55:42;;;;;;;;;;;;;;;10.21;100.00;99324.03;5069591;28;20371;-80
2021/11/17 03:58:21;;;;;;;;;;;;;;;9.95;100.00;99338.63;5054581;28;19929;-80
2021/11/17 04:00:54;;;;;;;;;;;;;;;10.30;100.00;99305.59;5053961;28;19924;-80
2021/11/17 04:03:30;;;;;;;;;;;;;;;10.16;100.00;99311.31;5054299;28;19931;-80
2021/11/17 04:07:10;;;;;;;;;;;;;;;9.73;100.00;99306.53;5091329;28;19916;-82
2021/11/17 04:09:43;;;;;;;;;;;;;;;9.89;100.00;99309.59;5090328;28;19994;-82
2021/11/17 04:12:35;;;;;;;;;;;;;;;9.66;100.00;99334.50;5107069;28;19924;-82
2021/11/17 04:15:02;;;;;;;;;;;;;;;9.57;100.00;99348.13;5106922;28;19932;-82
2021/11/17 04:17:51;;;;;;;;;;;;;;;10.29;100.00;99336.72;5092599;28;19930;-82
2021/11/17 04:20:24;;;;;;;;;;;;;;;9.83;100.00;99330.78;5107044;28;19947;-82
2021/11/17 04:22:54;;;;;;;;;;;;;;;9.86;100.00;99338.31;5106707;28;19932;-82
2021/11/17 04:25:40;;;;;;;;;;;;;;;9.87;100.00;99339.91;5091741;28;19925;-81
2021/11/17 04:28:07;;;;;;;;;;;;;;;9.89;100.00;99331.91;5073436;28;19932;-82
2021/11/17 04:30:48;;;;;;;;;;;;;;;9.74;100.00;99352.78;5089817;28;19924;-82
2021/11/17 04:33:44;;;;;;;;;;;;;;;9.73;100.00;99351.16;5107116;28;19925;-82
2021/11/17 04:36:23;;;;;;;;;;;;;;;10.07;100.00;99354.91;5088574;28;19924;-82
2021/11/17 04:39:09;;;;;;;;;;;;;;;10.49;100.00;99360.06;5091179;28;19928;-82
2021/11/17 04:41:36;;;;;;;;;;;;;;;9.77;100.00;99357.53;5091729;28;19928;-82
2021/11/17 04:44:15;;;;;;;;;;;;;;;9.68;100.00;99360.00;5091050;28;19924;-82
2021/11/17 04:46:48;;;;;;;;;;;;;;;9.82;100.00;99369.03;5073286;28;19924;-82
2021/11/17 04:49:40;;;;;;;;;;;;;;;10.37;100.00;99382.94;5091217;28;19950;-81
2021/11/17 04:52:07;;;;;;;;;;;;;;;10.53;100.00;99361.59;5089561;28;19925;-82
2021/11/17 04:54:34;;;;;;;;;;;;;;;10.54;100.00;99370.78;5090836;28;20290;-82
2021/11/17 04:57:02;;;;;;;;;;;;;;;10.41;100.00;99383.69;5089550;28;20031;-82
2021/11/17 04:59:41;;;;;;;;;;;;;;;10.72;100.00;99379.75;5090841;28;20368;-82
2021/11/17 05:02:16;;;;;;;;;;;;;;;10.17;100.00;99376.34;5072845;28;19986;-82
2021/11/17 05:04:43;;;;;;;;;;;;;;;9.90;100.00;99366.97;5106579;28;19924;-82
2021/11/17 05:07:10;;;;;;;;;;;;;;;10.04;100.00;99367.63;5089388;28;19928;-82
2021/11/17 05:09:43;;;;;;;;;;;;;;;10.14;100.00;99377.16;5090706;28;19924;-82
2021/11/17 05:12:18;;;;;;;;;;;;;;;10.03;100.00;99376.44;5089495;28;20015;-82
2021/11/17 05:14:55;;;;;;;;;;;;;;;10.75;100.00;99384.50;5106085;28;19931;-82
2021/11/17 05:17:41;;;;;;;;;;;;;;;10.74;100.00;99377.31;5065248;28;19925;-82
2021/11/17 05:20:20;;;;;;;;;;;;;;;11.06;100.00;99386.09;5076556;28;19925;-82
2021/11/17 05:23:11;;;;;;;;;;;;;;;11.21;100.00;99381.13;5092270;28;19924;-82
2021/11/17 05:25:44;;;;;;;;;;;;;;;11.17;100.00;99377.56;5054000;28;19924;-82
2021/11/17 05:28:24;;;;;;;;;;;;;;;10.95;100.00;99372.25;5075702;28;20304;-82
2021/11/17 05:31:00;;;;;;;;;;;;;;;10.79;100.00;99402.03;5075666;28;20260;-82
2021/11/17 05:33:27;;;;;;;;;;;;;;;10.27;100.00;99397.81;5058942;28;19931;-82
2021/11/17 05:35:57;;;;;;;;;;;;;;;10.30;100.00;99403.34;5076541;28;19932;-82
2021/11/17 05:38:37;;;;;;;;;;;;;;;10.41;100.00;99403.22;5075283;28;19924;-82
2021/11/17 05:41:14;;;;;;;;;;;;;;;9.89;100.00;99393.31;5075231;28;20390;-82
2021/11/17 05:43:51;;;;;;;;;;;;;;;10.05;100.00;99405.53;5091748;28;19924;-82
2021/11/17 05:46:37;;;;;;;;;;;;;;;10.16;100.00;99413.84;5075140;28;19931;-82
2021/11/17 05:49:07;;;;;;;;;;;;;;;10.17;100.00;99412.63;5058339;28;19925;-82
2021/11/17 05:51:55;;;;;;;;;;;;;;;10.29;100.00;99406.53;5092067;28;20366;-82
2021/11/17 05:54:40;;;;;;;;;;;;;;;10.40;100.00;99410.84;5068116;28;19931;-82
2021/11/17 05:57:30;;;;;;;;;;;;;;;10.35;100.00;99411.28;5074862;28;20380;-82
2021/11/17 06:00:15;;;;;;;;;;;;;;;10.61;100.00;99419.00;5075094;28;20011;-82
2021/11/17 06:02:52;;;;;;;;;;;;;;;10.85;100.00;99417.13;5076456;28;19928;-82
2021/11/17 06:05:18;;;;;;;;;;;;;;;10.60;100.00;99416.63;5074634;28;19928;-82
2021/11/17 06:07:45;;;;;;;;;;;;;;;10.56;100.00;99415.84;5074627;28;19924;-82
2021/11/17 06:10:15;;;;;;;;;;;;;;;10.93;100.00;99419.41;5074551;28;19925;-82
2021/11/17 06:12:42;;;;;;;;;;;;;;;11.00;100.00;99407.34;5074972;28;19932;-82
2021/11/17 06:15:12;;;;;;;;;;;;;;;10.65;100.00;99418.94;5091918;28;19977;-82
2021/11/17 06:17:40;;;;;;;;;;;;;;;10.35;100.00;99427.22;5091586;28;19925;-82
2021/11/17 06:20:10;;;;;;;;;;;;;;;10.51;100.00;99439.44;5074914;28;19967;-82
2021/11/17 06:22:40;;;;;;;;;;;;;;;10.44;100.00;99436.72;5074691;28;19931;-82
2021/11/17 06:25:09;;;;;;;;;;;;;;;10.65;100.00;99425.34;5075489;28;19931;-82
2021/11/17 06:27:38;;;;;;;;;;;;;;;10.60;100.00;99434.16;5075709;28;19924;-82
2021/11/17 06:30:07;;;;;;;;;;;;;;;10.58;100.00;99441.38;5073500;28;19931;-82
2021/11/17 06:32:34;;;;;;;;;;;;;;;10.72;100.00;99430.06;5074226;28;19931;-82
2021/11/17 06:35:02;;;;;;;;;;;;;;;10.60;100.00;99439.75;5075610;28;19990;-82
2021/11/17 06:37:30;;;;;;;;;;;;;;;10.69;100.00;99436.47;5074058;28;19932;-82
2021/11/17 06:39:58;;;;;;;;;;;;;;;10.68;100.00;99435.69;5075319;28;20371;-82
2021/11/17 06:42:34;;;;;;;;;;;;;;;10.68;100.00;99444.06;5090872;28;19924;-82
2021/11/17 06:45:02;;;;;;;;;;;;;;;10.94;100.00;99437.78;5090726;28;19960;-83
2021/11/17 06:47:29;;;;;;;;;;;;;;;10.60;100.00;99428.56;5107215;28;19924;-82
2021/11/17 06:49:57;;;;;;;;;;;;;;;10.79;100.00;99433.56;5074064;28;19928;-82
2021/11/17 06:52:24;;;;;;;;;;;;;;;10.99;100.00;99444.94;5073750;28;19924;-82
2021/11/17 06:54:52;;;;;;;;;;;;;;;10.99;100.00;99439.34;5107663;28;19998;-82
2021/11/17 06:57:19;;;;;;;;;;;;;;;10.79;100.00;99457.91;5107286;28;19978;-82
2021/11/17 06:59:47;;;;;;;;;;;;;;;10.71;100.00;99462.00;5073642;28;19935;-82
2021/11/17 07:02:14;;;;;;;;;;;;;;;10.31;100.00;99474.75;5073809;28;19924;-82
2021/11/17 07:04:42;;;;;;;;;;;;;;;10.59;100.00;99471.69;5090190;28;19925;-82
2021/11/17 07:07:10;;;;;;;;;;;;;;;10.39;100.00;99469.91;5040326;28;20279;-82
2021/11/17 07:09:37;;;;;;;;;;;;;;;10.61;100.00;99480.47;5056799;28;19924;-82
2021/11/17 07:12:05;;;;;;;;;;;;;;;10.53;100.00;99478.13;5057000;28;19924;-82
2021/11/17 07:14:32;;;;;;;;;;;;;;;10.50;100.00;99481.75;5090257;28;20037;-82
2021/11/17 07:17:00;;;;;;;;;;;;;;;10.11;100.00;99484.09;5106595;28;19960;-82
2021/11/17 07:19:28;;;;;;;;;;;;;;;10.19;100.00;99485.63;5073664;28;19924;-82
2021/11/17 07:21:56;;;;;;;;;;;;;;;10.37;100.00;99489.88;5056965;28;19924;-82
2021/11/17 07:24:25;;;;;;;;;;;;;;;10.39;100.00;99486.66;5089888;28;19932;-82
2021/11/17 07:26:52;;;;;;;;;;;;;;;10.49;100.00;99483.78;5090155;28;19924;-82
2021/11/17 07:29:19;;;;;;;;;;;;;;;10.40;100.00;99496.63;5088731;28;19924;-82
2021/11/17 07:31:47;;;;;;;;;;;;;;;9.88;100.00;99487.41;5074337;28;20075;-82
2021/11/17 07:34:15;;;;;;;;;;;;;;;10.05;100.00;99502.44;5074538;28;19932;-82
2021/11/17 07:36:42;;;;;;;;;;;;;;;10.05;100.00;99496.88;5088718;28;20325;-82
2021/11/17 07:39:14;;;;;;;;;;;;;;;10.50;100.00;99513.31;5073980;28;19935;-82
2021/11/17 07:41:43;;;;;;;;;;;;;;;10.43;100.00;99515.34;5074145;28;19993;-82
2021/11/17 07:44:14;;;;;;;;;;;;;;;10.37;100.00;99514.22;5073109;28;19936;-82
2021/11/17 07:46:42;;;;;;;;;;;;;;;10.42;100.00;99522.16;5056158;28;19928;-82
2021/11/17 07:49:09;;;;;;;;;;;;;;;10.32;100.00;99523.03;5107012;28;19947;-82
2021/11/17 07:51:37;;;;;;;;;;;;;;;10.18;100.00;99525.91;5089592;28;19925;-82
2021/11/17 07:54:05;;;;;;;;;;;;;;;10.53;100.00;99539.59;5056504;28;20375;-82
2021/11/17 07:56:34;;;;;;;;;;;;;;;10.32;100.00;99542.56;5089707;28;19963;-83
2021/11/17 07:59:01;;;;;;;;;;;;;;;10.19;100.00;99541.47;5072922;28;20280;-85
2021/11/17 08:01:29;;;;;;;;;;;;;;;10.01;100.00;99532.41;5072772;28;20019;-82
2021/11/17 08:03:56;;;;;;;;;;;;;;;9.95;100.00;99550.78;5073104;28;19974;-83
2021/11/17 08:06:25;;;;;;;;;;;;;;;9.90;100.00;99551.19;5072244;28;20606;-82
2021/11/17 08:08:52;;;;;;;;;;;;;;;10.00;100.00;99556.72;5106166;28;19931;-83
2021/11/17 08:11:20;;;;;;;;;;;;;;;10.20;100.00;99557.03;5072952;28;19925;-82
2021/11/17 08:13:47;;;;;;;;;;;;;;;10.62;100.00;99560.28;5055984;28;19924;-83
2021/11/17 08:16:14;;;;;;;;;;;;;;;10.55;100.00;99560.38;5072652;28;19977;-83
2021/11/17 08:18:42;;;;;;;;;;;;;;;10.64;100.00;99571.06;5072802;28;20284;-83
2021/11/17 08:21:11;;;;;;;;;;;;;;;10.45;100.00;99572.41;5073988;28;19924;-83
2021/11/17 08:23:38;;;;;;;;;;;;;;;10.33;100.00;99588.88;5072540;28;19948;-83
2021/11/17 08:26:05;;;;;;;;;;;;;;;10.19;100.00;99581.34;5073571;28;19947;-82
2021/11/17 08:28:32;;;;;;;;;;;;;;;10.57;100.00;99580.28;5055789;28;19925;-83
2021/11/17 08:31:03;;;;;;;;;;;;;;;10.52;100.00;99572.38;5089135;28;20354;-83
2021/11/17 08:36:47;;;;;;;;;;;;;;;10.87;100.00;99571.28;5072353;28;19925;-83
2021/11/17 08:39:17;;;;;;;;;;;;;;;10.66;100.00;99582.63;5073528;28;19982;-83
2021/11/17 08:41:44;;;;;;;;;;;;;;;10.92;100.00;99570.81;5072267;28;19932;-83
2021/11/17 08:44:12;;;;;;;;;;;;;;;10.51;100.00;99576.34;5088628;28;19947;-83
2021/11/17 08:46:39;;;;;;;;;;;;;;;10.71;100.00;99579.38;5088797;28;20372;-83
2021/11/17 08:49:06;;;;;;;;;;;;;;;10.98;100.00;99585.91;5072372;28;19956;-83
2021/11/17 08:51:33;;;;;;;;;;;;;;;10.86;100.00;99597.63;5088920;28;19925;-83
2021/11/17 08:54:01;;;;;;;;;;;;;;;10.99;100.00;99601.50;5059650;28;19939;-83
2021/11/17 08:56:30;;;;;;;;;;;;;;;10.75;100.00;99596.94;5093149;28;19932;-83
2021/11/17 08:58:57;;;;;;;;;;;;;;;10.67;100.00;99600.97;5075713;28;19982;-83
2021/11/17 09:01:24;;;;;;;;;;;;;;;10.61;100.00;99611.00;5076393;28;20351;-83
2021/11/17 09:03:51;;;;;;;;;;;;;;;10.74;100.00;99607.31;5075944;28;19925;-82
2021/11/17 09:06:18;;;;;;;;;;;;;;;10.66;100.00;99611.34;5075738;28;19930;-82
2021/11/17 09:08:46;;;;;;;;;;;;;;;11.07;100.00;99614.22;5075891;28;19924;-81
2021/11/17 09:11:16;;;;;;;;;;;;;;;11.28;100.00;99614.03;5059361;28;19925;-82
2021/11/17 09:13:44;;;;;;;;;;;;;;;11.17;100.00;99610.53;5075714;28;19946;-81
2021/11/17 09:16:12;;;;;;;;;;;;;;;11.23;100.00;99606.06;5075544;28;19929;-82
2021/11/17 09:18:40;;;;;;;;;;;;;;;11.03;100.00;99621.06;5042494;28;19956;-82
2021/11/17 09:23:31;;;;;;;;;;;;;;;11.03;100.00;99624.63;5078256;27;2123917;-81
2021/11/17 09:26:00;;;;;;;;;;;;;;;11.06;100.00;99639.81;5152980;27;19965;-83
2021/11/17 09:28:29;;;;;;;;;;;;;;;10.60;100.00;99640.16;5132692;27;19977;-81
2021/11/17 09:30:56;;;;;;;;;;;;;;;10.62;100.00;99655.31;5134593;27;19924;-81
2021/11/17 09:33:24;;;;;;;;;;;;;;;10.77;100.00;99644.81;5112853;27;19923;-80
2021/11/17 09:35:53;;;;;;;;;;;;;;;10.97;100.00;99643.06;5099715;27;19924;-80
2021/11/17 09:38:20;;;;;;;;;;;;;;;11.24;100.00;99644.00;5131683;27;20294;-81
2021/11/17 09:40:58;;;;;;;;;;;;;;;11.50;100.00;99643.34;5112885;27;19924;-81
2021/11/17 09:43:31;;;;;;;;;;;;;;;11.29;100.00;99646.38;5114406;27;19930;-81
2021/11/17 09:45:59;;;;;;;;;;;;;;;11.09;100.00;99655.75;5114081;27;19932;-81
2021/11/17 09:48:30;;;;;;;;;;;;;;;11.18;100.00;99654.06;5133747;27;19923;-81
2021/11/17 09:50:59;;;;;;;;;;;;;;;11.00;100.00;99650.63;5133952;27;20286;-81
2021/11/17 09:53:56;;;;;;;;;;;;;;;11.07;100.00;99658.97;5132096;27;20386;-81
2021/11/17 09:56:25;;;;;;;;;;;;;;;11.41;100.00;99664.63;5117764;27;19930;-80
2021/11/17 09:58:54;;;;;;;;;;;;;;;11.33;100.00;99661.09;5131084;27;19923;-81
2021/11/17 10:01:54;;;;;;;;;;;;;;;11.67;100.00;99645.22;5112912;27;19938;-81
2021/11/17 10:04:43;;;;;;;;;;;;;;;10.97;100.00;99648.66;5090264;28;19924;-81
2021/11/17 10:15:21;;;;;;;;;;;;;;;11.46;100.00;99647.41;5131087;28;19923;-78
2021/11/17 10:17:57;;;;;;;;;;;;;;;11.29;100.00;99657.56;5130401;27;19924;-78
2021/11/17 10:20:35;;;;;;;;;;;;;;;11.21;100.00;99650.44;5112103;27;19934;-80
2021/11/17 10:23:05;;;;;;;;;;;;;;;10.93;100.00;99659.09;5130510;27;20072;-79
2021/11/17 10:25:43;;;;;;;;;;;;;;;11.27;100.00;99651.56;5130852;28;19927;-79
2021/11/17 10:28:11;;;;;;;;;;;;;;;11.08;100.00;99646.56;5112946;28;19924;-79
2021/11/17 10:30:48;;;;;;;;;;;;;;;10.63;100.00;99639.34;5130793;28;19923;-79
2021/11/17 10:33:15;;;;;;;;;;;;;;;11.09;100.00;99662.13;5126084;28;19931;-79
2021/11/17 10:35:45;;;;;;;;;;;;;;;11.28;100.00;99669.97;5082108;28;19924;-79
2021/11/17 10:38:25;;;;;;;;;;;;;;;11.42;100.00;99669.03;5116642;28;19924;-78
2021/11/17 10:40:54;;;;;;;;;;;;;;;11.65;100.00;99672.81;5098074;28;20248;-78
2021/11/17 10:43:22;;;;;;;;;;;;;;;11.60;100.00;99670.41;5098626;28;19946;-78
2021/11/17 10:46:08;;;;;;;;;;;;;;;11.76;100.00;99662.28;5116976;28;19923;-78
2021/11/17 10:48:55;;;;;;;;;;;;;;;11.71;100.00;99665.53;5116836;28;20417;-77
2021/11/17 10:51:32;;;;;;;;;;;;;;;11.27;100.00;99665.56;5082055;28;19931;-78
2021/11/17 10:54:00;;;;;;;;;;;;;;;11.09;100.00;99673.31;5098556;28;19931;-78
2021/11/17 10:56:28;;;;;;;;;;;;;;;11.16;100.00;99664.09;5116790;28;19924;-78
2021/11/17 10:58:58;;;;;;;;;;;;;;;11.34;100.00;99662.72;5098451;28;19930;-78
2021/11/17 11:01:46;;;;;;;;;;;;;;;11.88;100.00;99661.75;5116657;28;19923;-79
2021/11/17 11:04:18;;;;;;;;;;;;;;;11.74;100.00;99664.72;5097859;28;19930;-77
2021/11/17 11:06:48;;;;;;;;;;;;;;;11.64;100.00;99651.63;5115874;28;20026;-78
2021/11/17 11:09:22;;;;;;;;;;;;;;;11.56;100.00;99655.69;5115914;28;19924;-77
2021/11/17 11:11:53;;;;;;;;;;;;;;;11.40;100.00;99663.06;5081516;28;19947;-77
2021/11/17 11:14:31;;;;;;;;;;;;;;;11.24;100.00;99644.00;5097815;28;19935;-77
2021/11/17 11:17:08;;;;;;;;;;;;;;;11.29;100.00;99651.97;5097900;28;19931;-77
2021/11/17 11:19:35;;;;;;;;;;;;;;;10.96;100.00;99647.06;5116304;28;19938;-77
2021/11/17 11:22:02;;;;;;;;;;;;;;;11.71;100.00;99650.75;5115823;28;19924;-78
2021/11/17 11:24:31;;;;;;;;;;;;;;;11.25;100.00;99656.81;5116326;28;19924;-77
2021/11/17 11:26:58;;;;;;;;;;;;;;;11.64;100.00;99657.22;5116049;28;19931;-78
2021/11/17 11:29:29;;;;;;;;;;;;;;;11.41;100.00;99654.25;5115818;28;19923;-78
2021/11/17 11:31:58;;;;;;;;;;;;;;;11.43;100.00;99651.84;5097759;28;19973;-78
2021/11/17 11:34:34;;;;;;;;;;;;;;;11.37;100.00;99650.69;5116143;28;19923;-78
2021/11/17 11:37:02;;;;;;;;;;;;;;;11.46;100.00;99647.41;5115646;28;19946;-78
2021/11/17 11:39:32;;;;;;;;;;;;;;;11.61;100.00;99654.44;5097223;28;19954;-78
2021/11/17 11:42:05;;;;;;;;;;;;;;;11.64;100.00;99668.44;5115671;28;19923;-78
2021/11/17 11:44:40;;;;;;;;;;;;;;;11.46;100.00;99665.00;5096963;28;19931;-78
2021/11/17 11:47:08;;;;;;;;;;;;;;;11.74;100.00;99659.13;5097603;28;19935;-78
2021/11/17 11:49:49;;;;;;;;;;;;;;;11.69;100.00;99679.16;5097256;28;19931;-78
2021/11/17 11:52:27;;;;;;;;;;;;;;;11.84;100.00;99677.81;5115718;28;20266;-79
2021/11/17 11:54:54;;;;;;;;;;;;;;;11.95;100.00;99674.88;5080818;28;19963;-79
2021/11/17 11:57:36;;;;;;;;;;;;;;;11.84;100.00;99677.81;5115539;28;19931;-79
2021/11/17 12:00:18;;;;;;;;;;;;;;;12.03;100.00;99663.16;5096829;28;19938;-79
2021/11/17 12:02:45;;;;;;;;;;;;;;;11.84;100.00;99669.41;5114783;28;19932;-80
2021/11/17 12:05:21;;;;;;;;;;;;;;;12.05;100.00;99674.75;5096444;28;19924;-80
2021/11/17 12:07:52;;;;;;;;;;;;;;;11.81;100.00;99669.44;5114437;28;19924;-79
2021/11/17 12:10:23;;;;;;;;;;;;;;;12.17;100.00;99671.41;5113491;27;20759;-79
2021/11/17 12:12:50;;;;;;;;;;;;;;;12.52;100.00;99664.53;5114780;28;20014;-79
2021/11/17 12:15:20;;;;;;;;;;;;;;;12.53;100.00;99666.91;5114189;28;19924;-79
2021/11/17 12:17:49;;;;;;;;;;;;;;;12.73;100.00;99659.41;5094628;28;19927;-79
2021/11/17 12:20:25;;;;;;;;;;;;;;;12.78;100.00;99661.72;5113740;28;19935;-79
2021/11/17 12:22:54;;;;;;;;;;;;;;;12.67;100.00;99655.50;5095810;28;19924;-79
2021/11/17 12:25:24;;;;;;;;;;;;;;;12.52;100.00;99648.50;5093698;28;19923;-79
2021/11/17 12:27:58;;;;;;;;;;;;;;;12.51;100.00;99646.91;5113435;28;19923;-78
2021/11/17 12:30:49;;;;;;;;;;;;;;;12.64;100.00;99642.31;5096614;28;20363;-80
2021/11/17 12:33:23;;;;;;;;;;;;;;;12.01;100.00;99645.22;5114597;28;19928;-81
2021/11/17 12:36:11;;;;;;;;;;;;;;;12.35;100.00;99627.13;5099173;28;19928;-79
2021/11/17 12:38:38;;;;;;;;;;;;;;;12.60;100.00;99633.16;5114908;28;19924;-80
2021/11/17 12:41:13;;;;;;;;;;;;;;;12.27;100.00;99636.84;5114899;28;19923;-80
2021/11/17 12:43:43;;;;;;;;;;;;;;;12.31;100.00;99637.56;5114750;28;20381;-80
2021/11/17 12:46:13;;;;;;;;;;;;;;;12.20;100.00;99642.53;5114904;28;20460;-80
2021/11/17 12:48:47;;;;;;;;;;;;;;;12.17;100.00;99636.97;5096550;28;19927;-80
2021/11/17 12:51:23;;;;;;;;;;;;;;;12.24;100.00;99640.47;5096798;28;20344;-80
2021/11/17 12:53:52;;;;;;;;;;;;;;;12.18;100.00;99646.97;5096937;28;19988;-80
2021/11/17 12:56:28;;;;;;;;;;;;;;;12.26;100.00;99651.28;5114272;28;19928;-80
2021/11/17 12:58:58;;;;;;;;;;;;;;;12.16;100.00;99646.63;5096466;28;19927;-80
2021/11/17 13:01:28;;;;;;;;;;;;;;;12.24;100.00;99651.69;5096624;28;20022;-80
2021/11/17 13:04:01;;;;;;;;;;;;;;;12.43;100.00;99659.41;5079384;28;19927;-80
2021/11/17 13:06:31;;;;;;;;;;;;;;;12.28;100.00;99648.84;5079101;28;19931;-80
2021/11/17 13:09:07;;;;;;;;;;;;;;;12.32;100.00;99649.59;5096685;28;19955;-80
2021/11/17 13:11:44;;;;;;;;;;;;;;;12.53;100.00;99644.47;5114520;28;19965;-80
2021/11/17 13:14:23;;;;;;;;;;;;;;;12.23;100.00;99658.50;5096389;28;19928;-80
2021/11/17 13:16:50;;;;;;;;;;;;;;;12.44;100.00;99640.59;5063053;28;19974;-80
2021/11/17 13:19:20;;;;;;;;;;;;;;;12.17;100.00;99651.00;5078820;28;20412;-80
2021/11/17 13:21:51;;;;;;;;;;;;;;;12.55;100.00;99652.47;5095653;28;19923;-80
2021/11/17 13:24:21;;;;;;;;;;;;;;;12.27;100.00;99645.25;5113718;28;20401;-79
2021/11/17 13:26:53;;;;;;;;;;;;;;;12.05;100.00;99652.34;5096393;28;20291;-79
2021/11/17 13:29:28;;;;;;;;;;;;;;;11.83;100.00;99641.84;5095404;28;19932;-79
2021/11/17 13:32:07;;;;;;;;;;;;;;;11.95;100.00;99647.66;5095675;28;20014;-79
2021/11/17 13:34:41;;;;;;;;;;;;;;;12.02;100.00;99642.00;5095610;28;20287;-78
2021/11/17 13:37:17;;;;;;;;;;;;;;;11.80;100.00;99643.44;5095990;28;19943;-79
2021/11/17 13:39:57;;;;;;;;;;;;;;;11.76;100.00;99639.09;5114169;28;19927;-79
2021/11/17 13:42:25;;;;;;;;;;;;;;;11.95;100.00;99621.69;5113905;28;19924;-79
2021/11/17 13:44:55;;;;;;;;;;;;;;;11.90;100.00;99622.13;5085220;28;19929;-79
2021/11/17 13:47:23;;;;;;;;;;;;;;;11.91;100.00;99624.50;5116130;28;19923;-80
2021/11/17 13:49:51;;;;;;;;;;;;;;;12.10;100.00;99620.28;5099221;28;19943;-79
2021/11/17 13:52:21;;;;;;;;;;;;;;;11.97;100.00;99624.84;5134452;28;19924;-79
2021/11/17 13:54:48;;;;;;;;;;;;;;;11.95;100.00;99636.47;5116196;28;19923;-80
2021/11/17 13:57:15;;;;;;;;;;;;;;;12.04;100.00;99639.53;5134367;28;19923;-80
2021/11/17 13:59:42;;;;;;;;;;;;;;;12.10;100.00;99649.06;5116158;28;19930;-79
2021/11/17 14:02:10;;;;;;;;;;;;;;;11.80;100.00;99643.44;5096171;28;19924;-80
2021/11/17 14:04:37;;;;;;;;;;;;;;;12.12;100.00;99646.66;5113443;28;19924;-80
2021/11/17 14:07:05;;;;;;;;;;;;;;;11.96;100.00;99649.28;5113444;28;20378;-79
2021/11/17 14:09:32;;;;;;;;;;;;;;;12.23;100.00;99646.50;5116263;28;19935;-80
2021/11/17 14:12:00;;;;;;;;;;;;;;;12.22;100.00;99634.50;5098806;28;19924;-80
2021/11/17 14:14:29;;;;;;;;;;;;;;;12.05;100.00;99635.53;5117092;28;19931;-80
2021/11/17 14:16:56;;;;;;;;;;;;;;;12.24;100.00;99643.28;5125567;27;20011;-80
2021/11/17 14:19:24;;;;;;;;;;;;;;;12.20;100.00;99636.94;5098715;28;19924;-80
2021/11/17 14:21:52;;;;;;;;;;;;;;;12.36;100.00;99647.50;5116538;28;19924;-80
2021/11/17 14:24:19;;;;;;;;;;;;;;;12.14;100.00;99649.84;5117143;28;19924;-80
2021/11/17 14:26:47;;;;;;;;;;;;;;;12.39;100.00;99641.88;5082476;28;19924;-80
2021/11/17 14:29:20;;;;;;;;;;;;;;;12.25;100.00;99650.47;5117312;28;19963;-80
2021/11/17 14:31:50;;;;;;;;;;;;;;;12.03;100.00;99659.56;5081976;28;19930;-80
2021/11/17 14:34:17;;;;;;;;;;;;;;;12.47;100.00;99646.16;5117222;28;19938;-80
2021/11/17 14:36:53;;;;;;;;;;;;;;;12.16;100.00;99646.63;5099491;28;20393;-80
2021/11/17 14:39:21;;;;;;;;;;;;;;;12.00;100.00;99627.59;5100346;28;19928;-80
2021/11/17 14:41:48;;;;;;;;;;;;;;;12.46;100.00;99643.78;5118545;27;19953;-79
2021/11/17 14:44:16;;;;;;;;;;;;;;;12.17;100.00;99637.78;5097073;28;19928;-80
2021/11/17 14:46:43;;;;;;;;;;;;;;;12.57;100.00;99639.59;5097997;28;19927;-80
2021/11/17 14:49:11;;;;;;;;;;;;;;;12.91;100.00;99636.69;5115619;28;19923;-80
2021/11/17 14:51:40;;;;;;;;;;;;;;;12.82;100.00;99635.63;5098401;28;19924;-80
2021/11/17 14:54:08;;;;;;;;;;;;;;;12.23;100.00;99624.09;5116213;28;19931;-80
2021/11/17 14:56:36;;;;;;;;;;;;;;;12.16;100.00;99622.16;5098778;28;19931;-79
2021/11/17 14:59:04;;;;;;;;;;;;;;;11.93;100.00;99644.50;5116554;28;19924;-80
2021/11/17 15:01:33;;;;;;;;;;;;;;;11.85;100.00;99650.59;5116779;28;20006;-80
2021/11/17 15:04:02;;;;;;;;;;;;;;;11.89;100.00;99643.72;5116046;28;20014;-79
2021/11/17 15:06:30;;;;;;;;;;;;;;;12.06;100.00;99653.13;5115851;28;19951;-79
2021/11/17 15:08:57;;;;;;;;;;;;;;;12.03;100.00;99657.56;5080826;28;19930;-78
2021/11/17 15:11:26;;;;;;;;;;;;;;;12.14;100.00;99672.25;5116366;28;20016;-78
2021/11/17 15:13:53;;;;;;;;;;;;;;;11.99;100.00;99679.22;5116008;28;20003;-78
2021/11/17 15:16:21;;;;;;;;;;;;;;;11.98;100.00;99677.63;5116178;28;20015;-78
2021/11/17 15:18:49;;;;;;;;;;;;;;;11.99;100.00;99686.84;5115742;28;19930;-78
2021/11/17 15:21:20;;;;;;;;;;;;;;;12.38;100.00;99681.53;5098459;28;20275;-80
2021/11/17 15:23:47;;;;;;;;;;;;;;;12.27;100.00;99681.66;5116377;28;19977;-80
2021/11/17 15:26:15;;;;;;;;;;;;;;;12.04;100.00;99673.16;5115947;27;19923;-78
2021/11/17 15:28:45;;;;;;;;;;;;;;;12.02;100.00;99670.00;5113364;27;20397;-78
2021/11/17 15:31:15;;;;;;;;;;;;;;;11.95;100.00;99675.66;5115178;28;19946;-78
2021/11/17 15:33:42;;;;;;;;;;;;;;;11.75;100.00;99673.91;5115709;28;20294;-78
2021/11/17 15:36:10;;;;;;;;;;;;;;;12.00;100.00;99672.41;5097964;28;19924;-80
2021/11/17 15:38:38;;;;;;;;;;;;;;;11.95;100.00;99675.66;5097898;28;20287;-82
2021/11/17 15:41:06;;;;;;;;;;;;;;;12.00;100.00;99683.63;5098070;28;20343;-80
2021/11/17 15:43:34;;;;;;;;;;;;;;;12.01;100.00;99678.81;5097839;28;20285;-80